Time;durP1;ratioP1;P1;durP2;ratioP2;P2;SDS_P1;SDS_P2;PMS_P1;PMS_P2;Temp;Humidity;BMP_temperature;BMP_pressure;BME280_temperature;BME280_humidity;BME280_pressure;Samples;Min_cycle;Max_cycle;Signal;HPM_P1;HPM_P2
2022/02/25 00:02:01;;;;;;;10.93;6.22;;;;;;;;;;5021244;28;20140;-85
2022/02/25 00:04:28;;;;;;;10.40;6.07;;;;;;;;;;5022062;28;20073;-85
2022/02/25 00:06:54;;;;;;;11.32;6.00;;;;;;;;;;5020909;28;20109;-86
2022/02/25 00:09:20;;;;;;;9.95;5.57;;;;;;;;;;5021447;28;20508;-85
2022/02/25 00:11:47;;;;;;;14.07;6.03;;;;;;;;;;5020303;28;20050;-85
2022/02/25 00:14:13;;;;;;;12.07;5.40;;;;;;;;;;5019893;28;20141;-83
2022/02/25 00:16:40;;;;;;;17.17;5.70;;;;;;;;;;5020574;28;20049;-83
2022/02/25 00:19:07;;;;;;;10.02;4.95;;;;;;;;;;5020180;28;20076;-84
2022/02/25 00:21:34;;;;;;;8.75;5.60;;;;;;;;;;5020665;28;20519;-82
2022/02/25 00:24:00;;;;;;;9.23;5.22;;;;;;;;;;5020749;28;20473;-82
2022/02/25 00:26:26;;;;;;;13.18;5.80;;;;;;;;;;5020868;28;20085;-84
2022/02/25 00:28:53;;;;;;;11.10;4.40;;;;;;;;;;5020492;28;20077;-84
2022/02/25 00:31:19;;;;;;;11.73;4.65;;;;;;;;;;5022211;28;20113;-84
2022/02/25 00:33:46;;;;;;;9.02;5.63;;;;;;;;;;5021859;28;20092;-84
2022/02/25 00:36:13;;;;;;;12.40;4.72;;;;;;;;;;5021068;28;20132;-85
2022/02/25 00:38:40;;;;;;;10.10;3.95;;;;;;;;;;5017841;28;20467;-84
2022/02/25 00:41:06;;;;;;;12.23;4.68;;;;;;;;;;5019139;28;20181;-86
2022/02/25 00:43:33;;;;;;;9.07;3.70;;;;;;;;;;5018579;28;20567;-85
2022/02/25 00:45:59;;;;;;;11.98;4.38;;;;;;;;;;5018175;28;20114;-85
2022/02/25 00:48:25;;;;;;;10.45;3.95;;;;;;;;;;5019889;28;20081;-85
2022/02/25 00:50:52;;;;;;;8.50;3.47;;;;;;;;;;5021594;28;20136;-85
2022/02/25 00:53:20;;;;;;;10.88;4.43;;;;;;;;;;5019173;28;20114;-85
2022/02/25 00:55:46;;;;;;;10.25;4.30;;;;;;;;;;5021608;28;20136;-84
2022/02/25 00:58:13;;;;;;;12.63;4.18;;;;;;;;;;5022554;28;20140;-84
2022/02/25 01:00:40;;;;;;;10.15;4.45;;;;;;;;;;5023916;28;20057;-85
2022/02/25 01:03:06;;;;;;;10.32;3.55;;;;;;;;;;5033357;23;20057;-84
2022/02/25 01:05:33;;;;;;;7.30;3.70;;;;;;;;;;5019333;28;20080;-84
2022/02/25 01:08:03;;;;;;;9.23;4.43;;;;;;;;;;5018458;28;20078;-84
2022/02/25 01:10:31;;;;;;;10.93;4.00;;;;;;;;;;5019720;28;20568;-84
2022/02/25 01:12:57;;;;;;;15.27;3.92;;;;;;;;;;5019829;28;20072;-84
2022/02/25 01:15:24;;;;;;;11.07;3.95;;;;;;;;;;5018489;28;20132;-84
2022/02/25 01:17:50;;;;;;;8.65;3.97;;;;;;;;;;5018810;28;20156;-82
2022/02/25 01:20:17;;;;;;;7.63;3.92;;;;;;;;;;5017824;28;20042;-84
2022/02/25 01:22:44;;;;;;;10.35;3.67;;;;;;;;;;5019400;28;20432;-84
2022/02/25 01:25:10;;;;;;;11.32;4.28;;;;;;;;;;5019667;28;20050;-82
2022/02/25 01:27:38;;;;;;;11.43;4.10;;;;;;;;;;5017850;28;20053;-84
2022/02/25 01:30:05;;;;;;;10.93;4.00;;;;;;;;;;5017577;28;20081;-84
2022/02/25 01:32:31;;;;;;;7.70;4.03;;;;;;;;;;5018397;28;20060;-84
2022/02/25 01:34:58;;;;;;;9.45;3.80;;;;;;;;;;5018706;28;20129;-84
2022/02/25 01:37:24;;;;;;;6.93;4.30;;;;;;;;;;5018584;28;20451;-83
2022/02/25 01:39:51;;;;;;;10.82;3.85;;;;;;;;;;5022588;28;20046;-83
2022/02/25 01:42:17;;;;;;;9.10;3.92;;;;;;;;;;5023841;28;20121;-83
2022/02/25 01:44:45;;;;;;;9.95;4.00;;;;;;;;;;5024294;28;20138;-82
2022/02/25 01:47:13;;;;;;;7.70;3.67;;;;;;;;;;5023587;28;20085;-83
2022/02/25 01:49:39;;;;;;;8.60;3.80;;;;;;;;;;5023420;28;20050;-83
2022/02/25 01:52:07;;;;;;;7.50;4.07;;;;;;;;;;5028023;28;20060;-83
2022/02/25 01:54:34;;;;;;;14.68;4.50;;;;;;;;;;5024347;28;20046;-83
2022/02/25 01:57:01;;;;;;;12.48;4.70;;;;;;;;;;5024709;28;20129;-82
2022/02/25 01:59:27;;;;;;;8.73;3.90;;;;;;;;;;5022355;28;20112;-83
2022/02/25 02:01:55;;;;;;;10.38;3.97;;;;;;;;;;5023026;28;20463;-83
2022/02/25 02:04:22;;;;;;;13.50;4.28;;;;;;;;;;5023854;28;20118;-83
2022/02/25 02:06:48;;;;;;;13.70;3.78;;;;;;;;;;5023895;28;20129;-83
2022/02/25 02:09:14;;;;;;;10.52;4.38;;;;;;;;;;5023859;28;20129;-84
2022/02/25 02:11:42;;;;;;;12.55;4.10;;;;;;;;;;5023824;28;20077;-83
2022/02/25 02:14:12;;;;;;;10.65;3.30;;;;;;;;;;5023875;28;20057;-82
2022/02/25 02:16:39;;;;;;;8.02;3.65;;;;;;;;;;5022417;28;20060;-82
2022/02/25 02:19:07;;;;;;;13.13;3.72;;;;;;;;;;5022408;28;20054;-83
2022/02/25 02:21:35;;;;;;;10.00;3.22;;;;;;;;;;5023570;28;20054;-83
2022/02/25 02:24:03;;;;;;;9.15;3.95;;;;;;;;;;5024091;28;20109;-83
2022/02/25 02:26:30;;;;;;;11.10;4.38;;;;;;;;;;5029576;28;20058;-84
2022/02/25 02:28:56;;;;;;;12.95;3.20;;;;;;;;;;5022931;28;20058;-84
2022/02/25 02:31:22;;;;;;;14.43;3.60;;;;;;;;;;5023811;28;20077;-84
2022/02/25 02:33:49;;;;;;;13.48;3.85;;;;;;;;;;5024017;28;20124;-84
2022/02/25 02:36:15;;;;;;;8.55;3.47;;;;;;;;;;5024395;28;20096;-83
2022/02/25 02:38:42;;;;;;;10.02;3.38;;;;;;;;;;5023466;28;20053;-84
2022/02/25 02:41:10;;;;;;;10.77;3.30;;;;;;;;;;5023547;28;20077;-84
2022/02/25 02:43:36;;;;;;;5.57;3.13;;;;;;;;;;5023493;28;20133;-84
2022/02/25 02:46:04;;;;;;;12.25;3.58;;;;;;;;;;5022983;28;20058;-84
2022/02/25 02:48:30;;;;;;;10.38;3.30;;;;;;;;;;5022034;28;20077;-85
2022/02/25 02:50:57;;;;;;;10.90;3.50;;;;;;;;;;5022221;28;20125;-84
2022/02/25 02:53:23;;;;;;;9.85;3.20;;;;;;;;;;5021948;28;20046;-84
2022/02/25 02:55:50;;;;;;;8.15;3.47;;;;;;;;;;5020913;28;20132;-83
2022/02/25 02:58:17;;;;;;;13.98;4.40;;;;;;;;;;5020332;28;20081;-83
2022/02/25 03:00:46;;;;;;;12.85;3.33;;;;;;;;;;5021170;28;20125;-83
2022/02/25 03:03:12;;;;;;;10.85;3.50;;;;;;;;;;5020979;28;20065;-83
2022/02/25 03:05:38;;;;;;;10.05;3.90;;;;;;;;;;5020152;28;20081;-82
2022/02/25 03:08:05;;;;;;;9.50;4.38;;;;;;;;;;5019387;28;20050;-83
2022/02/25 03:10:32;;;;;;;9.27;3.47;;;;;;;;;;5020486;28;20049;-83
2022/02/25 03:12:58;;;;;;;10.98;4.47;;;;;;;;;;5020683;28;20046;-83
2022/02/25 03:15:26;;;;;;;10.32;3.70;;;;;;;;;;5020389;28;20084;-81
2022/02/25 03:17:52;;;;;;;10.55;3.60;;;;;;;;;;5020527;28;20136;-81
2022/02/25 03:20:19;;;;;;;11.30;3.65;;;;;;;;;;5024480;28;20490;-80
2022/02/25 03:22:45;;;;;;;10.93;3.60;;;;;;;;;;5021746;28;20085;-81
2022/02/25 03:25:13;;;;;;;10.93;3.67;;;;;;;;;;5021321;28;20613;-82
2022/02/25 03:27:39;;;;;;;14.07;3.97;;;;;;;;;;5021529;28;20448;-84
2022/02/25 03:30:07;;;;;;;7.38;3.47;;;;;;;;;;5020998;28;20100;-82
2022/02/25 03:32:35;;;;;;;10.23;4.05;;;;;;;;;;5019927;28;20049;-84
2022/02/25 03:35:01;;;;;;;7.00;3.53;;;;;;;;;;5019999;28;20114;-83
2022/02/25 03:37:29;;;;;;;16.90;3.80;;;;;;;;;;5020135;28;20054;-82
2022/02/25 03:39:56;;;;;;;12.60;4.00;;;;;;;;;;5019689;28;20057;-83
2022/02/25 03:42:22;;;;;;;8.18;3.90;;;;;;;;;;5022893;28;20144;-83
2022/02/25 03:44:49;;;;;;;8.52;3.60;;;;;;;;;;5021259;28;20522;-82
2022/02/25 03:47:16;;;;;;;10.13;3.40;;;;;;;;;;5024512;28;20138;-80
2022/02/25 03:49:44;;;;;;;12.65;3.83;;;;;;;;;;5026426;28;20132;-83
2022/02/25 03:52:10;;;;;;;11.07;4.07;;;;;;;;;;5021193;28;20456;-83
2022/02/25 03:54:37;;;;;;;9.05;3.90;;;;;;;;;;5021398;28;20125;-83
2022/02/25 03:57:03;;;;;;;10.80;3.90;;;;;;;;;;5021987;28;20089;-82
2022/02/25 03:59:30;;;;;;;10.05;4.22;;;;;;;;;;5020729;28;20457;-82
2022/02/25 04:01:57;;;;;;;10.95;3.63;;;;;;;;;;5020308;28;20086;-82
2022/02/25 04:04:24;;;;;;;11.63;3.85;;;;;;;;;;5020153;28;20082;-82
2022/02/25 04:06:52;;;;;;;10.05;3.45;;;;;;;;;;5019879;28;20406;-82
2022/02/25 04:09:19;;;;;;;11.40;3.95;;;;;;;;;;5023890;28;20140;-84
2022/02/25 04:11:46;;;;;;;13.50;3.97;;;;;;;;;;5023372;28;20068;-83
2022/02/25 04:14:13;;;;;;;16.02;3.88;;;;;;;;;;5020831;28;20054;-82
2022/02/25 04:16:40;;;;;;;10.45;4.88;;;;;;;;;;5018992;28;20049;-82
2022/02/25 04:19:06;;;;;;;17.50;4.07;;;;;;;;;;5018658;28;20114;-83
2022/02/25 04:21:33;;;;;;;11.85;3.78;;;;;;;;;;5018529;28;20423;-82
2022/02/25 04:24:02;;;;;;;15.13;4.15;;;;;;;;;;5019526;28;20677;-83
2022/02/25 04:26:28;;;;;;;10.73;3.83;;;;;;;;;;5019044;28;20108;-83
2022/02/25 04:28:55;;;;;;;11.85;3.47;;;;;;;;;;5024221;28;20114;-84
2022/02/25 04:31:21;;;;;;;16.83;4.05;;;;;;;;;;5018491;28;20076;-83
2022/02/25 04:33:47;;;;;;;9.93;3.80;;;;;;;;;;5017579;28;20137;-83
2022/02/25 04:36:14;;;;;;;8.65;3.70;;;;;;;;;;5016406;28;20133;-81
2022/02/25 04:38:40;;;;;;;18.67;4.65;;;;;;;;;;5016679;28;20054;-84
2022/02/25 04:41:08;;;;;;;8.57;3.25;;;;;;;;;;5019138;28;20045;-84
2022/02/25 04:43:35;;;;;;;15.50;3.92;;;;;;;;;;5020633;28;20488;-84
2022/02/25 04:46:01;;;;;;;13.40;3.80;;;;;;;;;;5020420;28;20457;-83
2022/02/25 04:48:28;;;;;;;10.63;3.63;;;;;;;;;;5020280;28;20046;-83
2022/02/25 04:50:55;;;;;;;15.18;3.70;;;;;;;;;;5021461;28;20612;-83
2022/02/25 04:53:21;;;;;;;11.55;4.47;;;;;;;;;;5020155;28;20073;-83
2022/02/25 04:55:48;;;;;;;15.50;3.70;;;;;;;;;;5019484;28;20132;-82
2022/02/25 04:58:16;;;;;;;17.52;4.22;;;;;;;;;;5020139;28;20176;-83
2022/02/25 05:00:42;;;;;;;13.32;3.80;;;;;;;;;;5021586;28;20112;-83
2022/02/25 05:03:09;;;;;;;23.38;6.03;;;;;;;;;;5026718;28;20084;-84
2022/02/25 05:05:36;;;;;;;16.90;4.10;;;;;;;;;;5032411;28;20052;-84
2022/02/25 05:08:04;;;;;;;20.98;4.70;;;;;;;;;;5031467;28;20109;-80
2022/02/25 05:10:33;;;;;;;10.90;4.28;;;;;;;;;;5031681;28;20046;-81
2022/02/25 05:13:12;;;;;;;9.57;3.53;;;;;;;;;;5033726;28;20050;-82
2022/02/25 05:21:16;;;;;;;13.27;5.57;;;;;;;;;;5034671;28;20110;-83
2022/02/25 05:23:43;;;;;;;17.45;4.43;;;;;;;;;;5035281;28;20129;-85
2022/02/25 05:26:09;;;;;;;15.00;3.92;;;;;;;;;;5034728;28;20060;-83
2022/02/25 05:28:37;;;;;;;20.30;5.63;;;;;;;;;;5032787;28;20050;-83
2022/02/25 05:31:05;;;;;;;16.40;4.80;;;;;;;;;;5034530;28;20046;-84
2022/02/25 05:33:31;;;;;;;9.25;4.10;;;;;;;;;;5037753;28;20042;-84
2022/02/25 05:35:58;;;;;;;13.63;6.10;;;;;;;;;;5038713;28;20030;-86
2022/02/25 05:38:24;;;;;;;18.52;4.57;;;;;;;;;;5035873;28;20049;-86
2022/02/25 05:40:51;;;;;;;15.05;4.30;;;;;;;;;;5026434;28;20050;-86
2022/02/25 05:43:17;;;;;;;9.43;4.05;;;;;;;;;;5023541;28;20113;-86
2022/02/25 05:45:44;;;;;;;9.98;3.40;;;;;;;;;;5022694;28;20062;-85
2022/02/25 05:48:11;;;;;;;15.90;5.00;;;;;;;;;;5023408;28;20428;-84
2022/02/25 05:50:38;;;;;;;13.07;3.88;;;;;;;;;;5026924;28;20109;-84
2022/02/25 05:53:04;;;;;;;15.32;4.25;;;;;;;;;;5023441;28;20105;-84
2022/02/25 05:55:31;;;;;;;14.27;4.05;;;;;;;;;;5024246;28;20053;-86
2022/02/25 05:57:57;;;;;;;11.95;3.72;;;;;;;;;;5023928;28;20081;-84
2022/02/25 06:00:27;;;;;;;9.52;3.95;;;;;;;;;;5030523;28;20093;-83
2022/02/25 06:03:04;;;;;;;9.60;3.72;;;;;;;;;;5030365;28;20069;-83
2022/02/25 06:05:32;;;;;;;19.13;4.20;;;;;;;;;;5032352;28;20069;-84
2022/02/25 06:08:00;;;;;;;23.98;5.28;;;;;;;;;;5031207;28;20081;-83
2022/02/25 06:10:26;;;;;;;16.27;4.25;;;;;;;;;;5030597;28;20049;-83
2022/02/25 06:12:53;;;;;;;18.52;4.28;;;;;;;;;;5030016;28;20069;-83
2022/02/25 06:15:19;;;;;;;13.55;4.05;;;;;;;;;;5026472;28;20077;-84
2022/02/25 06:17:47;;;;;;;9.90;3.60;;;;;;;;;;5026438;28;20077;-85
2022/02/25 06:20:14;;;;;;;14.77;4.13;;;;;;;;;;5025288;28;20718;-85
2022/02/25 06:22:41;;;;;;;17.35;4.20;;;;;;;;;;5026842;28;20080;-83
2022/02/25 06:25:11;;;;;;;14.43;3.95;;;;;;;;;;5024931;28;20306;-84
2022/02/25 06:27:37;;;;;;;12.65;4.68;;;;;;;;;;5026116;28;20058;-83
2022/02/25 06:30:04;;;;;;;20.25;5.22;;;;;;;;;;5024551;28;20137;-85
2022/02/25 06:32:31;;;;;;;12.93;4.22;;;;;;;;;;5023178;28;20042;-84
2022/02/25 06:34:57;;;;;;;13.23;3.60;;;;;;;;;;5022942;28;20089;-82
2022/02/25 06:37:23;;;;;;;14.82;3.53;;;;;;;;;;5024843;28;20141;-83
2022/02/25 06:39:51;;;;;;;17.00;4.00;;;;;;;;;;5024671;28;20072;-83
2022/02/25 06:42:18;;;;;;;18.00;4.53;;;;;;;;;;5024082;28;20046;-83
2022/02/25 06:44:46;;;;;;;20.52;4.13;;;;;;;;;;5023265;28;20162;-82
2022/02/25 06:47:13;;;;;;;14.20;4.30;;;;;;;;;;5021683;28;20081;-84
2022/02/25 06:49:43;;;;;;;17.75;4.28;;;;;;;;;;5026536;28;20113;-84
2022/02/25 06:52:09;;;;;;;13.88;3.90;;;;;;;;;;5027668;28;20057;-83
2022/02/25 06:54:36;;;;;;;20.63;3.83;;;;;;;;;;5023043;28;20105;-81
2022/02/25 06:57:04;;;;;;;18.42;7.00;;;;;;;;;;5025640;28;20076;-84
2022/02/25 06:59:30;;;;;;;16.85;4.25;;;;;;;;;;5028985;28;20077;-83
2022/02/25 07:01:57;;;;;;;14.83;4.20;;;;;;;;;;5044617;23;20080;-80
2022/02/25 07:04:23;;;;;;;15.95;4.80;;;;;;;;;;5033673;28;20140;-81
2022/02/25 07:06:51;;;;;;;15.57;3.80;;;;;;;;;;5020728;28;20057;-81
2022/02/25 07:09:18;;;;;;;15.60;3.67;;;;;;;;;;5018306;28;20537;-82
2022/02/25 07:11:44;;;;;;;11.60;4.22;;;;;;;;;;5018647;28;20132;-81
2022/02/25 07:14:12;;;;;;;8.90;3.40;;;;;;;;;;4998647;28;20130;-81
2022/02/25 07:16:38;;;;;;;12.00;4.13;;;;;;;;;;5007161;28;20272;-81
2022/02/25 07:19:04;;;;;;;20.98;4.15;;;;;;;;;;5006626;28;20085;-81
2022/02/25 07:21:31;;;;;;;13.15;3.95;;;;;;;;;;5009194;28;20070;-81
2022/02/25 07:23:57;;;;;;;10.50;4.22;;;;;;;;;;5010608;28;20082;-81
2022/02/25 07:26:24;;;;;;;15.45;4.57;;;;;;;;;;5009861;28;20077;-83
2022/02/25 07:28:50;;;;;;;14.48;4.78;;;;;;;;;;5010018;28;20133;-80
2022/02/25 07:31:18;;;;;;;16.65;3.47;;;;;;;;;;5010094;28;20054;-81
2022/02/25 07:33:45;;;;;;;14.18;3.90;;;;;;;;;;5003866;28;20050;-81
2022/02/25 07:36:11;;;;;;;15.75;3.88;;;;;;;;;;5002047;28;20082;-80
2022/02/25 07:38:38;;;;;;;16.00;4.47;;;;;;;;;;5003399;28;20085;-81
2022/02/25 07:41:06;;;;;;;16.33;4.03;;;;;;;;;;5000913;28;20050;-81
2022/02/25 07:43:33;;;;;;;14.85;3.65;;;;;;;;;;5001624;28;20061;-81
2022/02/25 07:45:59;;;;;;;14.57;3.63;;;;;;;;;;5002557;28;20081;-81
2022/02/25 07:48:27;;;;;;;16.45;3.85;;;;;;;;;;5002755;28;20464;-81
2022/02/25 07:50:53;;;;;;;20.48;3.97;;;;;;;;;;5003072;28;20050;-82
2022/02/25 07:53:20;;;;;;;21.02;4.25;;;;;;;;;;5003044;28;20046;-82
2022/02/25 07:55:47;;;;;;;14.82;3.83;;;;;;;;;;5002709;28;20050;-79
2022/02/25 07:58:13;;;;;;;14.07;4.00;;;;;;;;;;5001726;28;20133;-81
2022/02/25 08:00:40;;;;;;;14.18;3.50;;;;;;;;;;5004222;28;20057;-80
2022/02/25 08:03:06;;;;;;;14.15;4.65;;;;;;;;;;5003974;28;20110;-81
2022/02/25 08:05:34;;;;;;;13.40;4.55;;;;;;;;;;5004345;28;20153;-81
2022/02/25 08:08:02;;;;;;;7.57;3.40;;;;;;;;;;5003597;28;20081;-80
2022/02/25 08:10:28;;;;;;;16.17;3.60;;;;;;;;;;5008680;28;20081;-82
2022/02/25 08:12:54;;;;;;;15.27;4.18;;;;;;;;;;5006850;28;20078;-80
2022/02/25 08:15:21;;;;;;;15.75;3.83;;;;;;;;;;5007942;28;20114;-80
2022/02/25 08:17:48;;;;;;;17.27;4.38;;;;;;;;;;5004834;28;20054;-80
2022/02/25 08:20:14;;;;;;;12.43;3.72;;;;;;;;;;4997359;28;20128;-79
2022/02/25 08:22:43;;;;;;;15.90;4.28;;;;;;;;;;4984639;28;20042;-81
2022/02/25 08:25:10;;;;;;;13.35;4.10;;;;;;;;;;4991687;28;20454;-80
2022/02/25 08:27:36;;;;;;;16.45;3.92;;;;;;;;;;5000987;28;20054;-82
2022/02/25 08:30:03;;;;;;;12.48;4.07;;;;;;;;;;5002335;28;20425;-80
2022/02/25 08:32:30;;;;;;;8.48;4.00;;;;;;;;;;5002847;28;20118;-80
2022/02/25 08:34:56;;;;;;;12.85;3.70;;;;;;;;;;5002629;28;20061;-80
2022/02/25 08:37:23;;;;;;;11.40;3.88;;;;;;;;;;5006955;28;20046;-81
2022/02/25 08:39:51;;;;;;;15.80;4.15;;;;;;;;;;5005047;28;20054;-81
2022/02/25 08:42:17;;;;;;;20.27;4.18;;;;;;;;;;4995494;28;20110;-82
2022/02/25 08:44:45;;;;;;;16.90;3.95;;;;;;;;;;4996169;28;20046;-79
2022/02/25 08:47:11;;;;;;;16.67;5.28;;;;;;;;;;4992136;28;20130;-81
2022/02/25 08:49:40;;;;;;;12.30;3.97;;;;;;;;;;4990715;28;20126;-81
2022/02/25 08:52:09;;;;;;;15.90;4.20;;;;;;;;;;4990721;28;20085;-81
2022/02/25 08:54:35;;;;;;;12.27;4.22;;;;;;;;;;4986994;28;20058;-81
2022/02/25 08:57:04;;;;;;;22.73;4.97;;;;;;;;;;4992344;28;20078;-80
2022/02/25 08:59:30;;;;;;;17.00;4.47;;;;;;;;;;4987695;28;20089;-81
2022/02/25 09:01:57;;;;;;;23.98;4.50;;;;;;;;;;4993120;28;20510;-80
2022/02/25 09:04:23;;;;;;;10.20;4.20;;;;;;;;;;4990144;28;20071;-81
2022/02/25 09:06:49;;;;;;;19.73;5.22;;;;;;;;;;4992787;28;20057;-81
2022/02/25 09:09:16;;;;;;;12.63;4.70;;;;;;;;;;4999898;28;20133;-80
2022/02/25 09:11:42;;;;;;;14.98;4.50;;;;;;;;;;5001700;28;20078;-80
2022/02/25 09:14:10;;;;;;;14.73;4.22;;;;;;;;;;4986571;28;20093;-80
2022/02/25 09:16:37;;;;;;;14.02;5.10;;;;;;;;;;5000071;28;20065;-80
2022/02/25 09:19:04;;;;;;;21.58;4.68;;;;;;;;;;4998999;28;20071;-79
2022/02/25 09:21:30;;;;;;;14.50;4.75;;;;;;;;;;4999575;28;20078;-81
2022/02/25 09:23:57;;;;;;;19.55;4.72;;;;;;;;;;4999312;28;20064;-79
2022/02/25 09:26:23;;;;;;;15.15;4.93;;;;;;;;;;5000556;28;20137;-80
2022/02/25 09:28:50;;;;;;;14.40;4.10;;;;;;;;;;4998816;28;20110;-79
2022/02/25 09:31:18;;;;;;;16.05;4.90;;;;;;;;;;5001281;28;20054;-82
2022/02/25 09:33:44;;;;;;;19.83;4.85;;;;;;;;;;5000601;28;20082;-81
2022/02/25 09:36:10;;;;;;;22.33;4.90;;;;;;;;;;4999054;28;20086;-82
2022/02/25 09:38:39;;;;;;;18.40;5.32;;;;;;;;;;4996791;28;20084;-82
2022/02/25 09:41:05;;;;;;;12.00;4.55;;;;;;;;;;4997450;28;20142;-81
2022/02/25 09:43:32;;;;;;;16.25;4.68;;;;;;;;;;5002989;28;20077;-82
2022/02/25 09:46:01;;;;;;;13.93;4.80;;;;;;;;;;5003596;28;20054;-82
2022/02/25 09:48:29;;;;;;;8.90;4.15;;;;;;;;;;5003842;28;20138;-82
2022/02/25 09:50:55;;;;;;;14.32;4.78;;;;;;;;;;5004007;28;20118;-81
2022/02/25 09:53:22;;;;;;;22.83;6.80;;;;;;;;;;5003636;28;20101;-81
2022/02/25 09:55:48;;;;;;;15.20;4.82;;;;;;;;;;5001732;28;20054;-81
2022/02/25 09:58:14;;;;;;;18.63;4.57;;;;;;;;;;5002890;28;20077;-81
2022/02/25 10:00:42;;;;;;;18.70;4.85;;;;;;;;;;5006515;28;20047;-81
2022/02/25 10:03:11;;;;;;;17.75;4.32;;;;;;;;;;5009777;28;20106;-82
2022/02/25 10:05:39;;;;;;;15.07;4.28;;;;;;;;;;5015158;28;20108;-81
2022/02/25 10:08:10;;;;;;;15.93;4.70;;;;;;;;;;5005024;28;20132;-80
2022/02/25 10:10:44;;;;;;;13.90;4.63;;;;;;;;;;5005708;28;20250;-82
2022/02/25 10:13:11;;;;;;;25.20;5.75;;;;;;;;;;5006217;28;20045;-80
2022/02/25 10:15:38;;;;;;;20.88;4.72;;;;;;;;;;5005728;28;20074;-82
2022/02/25 10:18:05;;;;;;;16.50;5.00;;;;;;;;;;5005195;28;20078;-81
2022/02/25 10:20:32;;;;;;;13.52;5.00;;;;;;;;;;5004675;28;20129;-80
2022/02/25 10:23:00;;;;;;;15.82;4.55;;;;;;;;;;5006401;28;20065;-79
2022/02/25 10:25:32;;;;;;;18.33;4.68;;;;;;;;;;5007032;28;20096;-80
2022/02/25 10:27:58;;;;;;;18.15;4.80;;;;;;;;;;5003668;28;20057;-82
2022/02/25 10:30:25;;;;;;;25.83;4.75;;;;;;;;;;5003524;28;20532;-81
2022/02/25 10:32:53;;;;;;;18.45;5.65;;;;;;;;;;5005071;28;20058;-82
2022/02/25 10:35:21;;;;;;;18.38;4.78;;;;;;;;;;5004036;28;20112;-81
2022/02/25 10:37:55;;;;;;;17.10;5.05;;;;;;;;;;5003568;28;20110;-79
2022/02/25 10:40:23;;;;;;;18.25;5.18;;;;;;;;;;5011692;28;20050;-82
2022/02/25 10:42:50;;;;;;;15.50;5.20;;;;;;;;;;5015035;28;20034;-83
2022/02/25 10:45:26;;;;;;;18.17;4.72;;;;;;;;;;5015605;28;20110;-83
2022/02/25 10:47:52;;;;;;;24.92;4.88;;;;;;;;;;5013977;28;20077;-81
2022/02/25 10:50:20;;;;;;;15.07;4.63;;;;;;;;;;5006687;28;20137;-80
2022/02/25 10:52:48;;;;;;;19.63;5.00;;;;;;;;;;5004749;28;20049;-83
2022/02/25 10:55:15;;;;;;;15.85;5.45;;;;;;;;;;5005627;28;20060;-82
2022/02/25 10:57:43;;;;;;;18.75;5.22;;;;;;;;;;5005254;28;20081;-83
2022/02/25 11:00:11;;;;;;;22.55;5.30;;;;;;;;;;5004448;28;20061;-82
2022/02/25 11:02:38;;;;;;;16.65;5.20;;;;;;;;;;5004182;28;20080;-80
2022/02/25 11:05:06;;;;;;;16.08;4.97;;;;;;;;;;5005097;28;20125;-83
2022/02/25 11:07:33;;;;;;;15.00;4.95;;;;;;;;;;5002890;28;20050;-81
2022/02/25 11:10:00;;;;;;;15.95;5.13;;;;;;;;;;5002488;28;20489;-82
2022/02/25 11:12:28;;;;;;;16.25;5.20;;;;;;;;;;5003726;28;20121;-82
2022/02/25 11:14:56;;;;;;;16.48;5.07;;;;;;;;;;5002286;28;20069;-82
2022/02/25 11:17:22;;;;;;;17.10;4.72;;;;;;;;;;5002323;28;20058;-83
2022/02/25 11:19:50;;;;;;;13.13;4.35;;;;;;;;;;5002409;28;20113;-81
2022/02/25 11:22:18;;;;;;;16.20;5.47;;;;;;;;;;5003714;28;20046;-81
2022/02/25 11:24:45;;;;;;;18.63;5.80;;;;;;;;;;5003279;28;20062;-80
2022/02/25 11:27:11;;;;;;;14.90;4.78;;;;;;;;;;5003599;28;20162;-81
2022/02/25 11:29:39;;;;;;;20.33;5.57;;;;;;;;;;5002559;28;20081;-82
2022/02/25 11:32:11;;;;;;;15.10;5.28;;;;;;;;;;5001484;28;20058;-80
2022/02/25 11:34:38;;;;;;;12.93;4.97;;;;;;;;;;5002450;28;20054;-81
2022/02/25 11:37:04;;;;;;;17.45;5.32;;;;;;;;;;5001040;28;20096;-80
2022/02/25 11:39:31;;;;;;;18.33;5.20;;;;;;;;;;5000203;28;20138;-80
2022/02/25 11:41:58;;;;;;;12.43;5.28;;;;;;;;;;5001364;28;20054;-82
2022/02/25 11:44:25;;;;;;;25.13;5.60;;;;;;;;;;5003716;28;20129;-81
2022/02/25 11:46:52;;;;;;;15.88;5.50;;;;;;;;;;5004366;28;20073;-81
2022/02/25 11:49:23;;;;;;;19.08;5.30;;;;;;;;;;5004805;28;20054;-81
2022/02/25 11:51:59;;;;;;;20.05;5.25;;;;;;;;;;5005617;28;20078;-80
2022/02/25 11:54:34;;;;;;;17.88;5.35;;;;;;;;;;5005742;28;20078;-81
2022/02/25 11:57:20;;;;;;;14.73;5.03;;;;;;;;;;5000070;28;20503;-81
2022/02/25 12:00:06;;;;;;;18.02;4.95;;;;;;;;;;5001312;28;20089;-81
2022/02/25 12:02:35;;;;;;;16.67;6.05;;;;;;;;;;4999760;28;20054;-79
2022/02/25 12:05:12;;;;;;;17.42;5.65;;;;;;;;;;5002147;28;20058;-81
2022/02/25 12:07:40;;;;;;;15.98;5.57;;;;;;;;;;5002159;28;20109;-80
2022/02/25 12:10:15;;;;;;;21.20;6.05;;;;;;;;;;4999334;28;20077;-80
2022/02/25 12:12:42;;;;;;;13.55;5.10;;;;;;;;;;5000618;28;20134;-82
2022/02/25 12:15:11;;;;;;;15.57;5.22;;;;;;;;;;5003578;28;20050;-81
2022/02/25 12:17:39;;;;;;;13.80;4.95;;;;;;;;;;5003817;28;20054;-83
2022/02/25 12:20:06;;;;;;;17.90;4.88;;;;;;;;;;5003360;28;20114;-81
2022/02/25 12:22:48;;;;;;;18.60;5.22;;;;;;;;;;5005023;28;20088;-81
2022/02/25 12:25:15;;;;;;;16.85;5.55;;;;;;;;;;5004235;28;20085;-81
2022/02/25 12:27:42;;;;;;;14.23;5.07;;;;;;;;;;5005222;28;20145;-82
2022/02/25 12:30:23;;;;;;;18.20;5.30;;;;;;;;;;5004588;28;20134;-82
2022/02/25 12:32:49;;;;;;;16.02;5.20;;;;;;;;;;5003986;28;20057;-80
2022/02/25 12:35:18;;;;;;;13.15;5.10;;;;;;;;;;5002472;28;20125;-80
2022/02/25 12:37:44;;;;;;;15.27;5.22;;;;;;;;;;5008183;28;20057;-83
2022/02/25 12:40:13;;;;;;;14.50;5.00;;;;;;;;;;5005977;28;20372;-79
2022/02/25 12:42:40;;;;;;;15.85;5.45;;;;;;;;;;4997802;28;20054;-79
2022/02/25 12:45:06;;;;;;;20.42;5.70;;;;;;;;;;4997686;28;20144;-80
2022/02/25 12:47:33;;;;;;;15.43;5.25;;;;;;;;;;4997777;28;20141;-79
2022/02/25 12:50:03;;;;;;;17.05;5.28;;;;;;;;;;4997351;28;20133;-80
2022/02/25 12:52:29;;;;;;;17.02;5.90;;;;;;;;;;4999639;28;20062;-80
2022/02/25 12:54:57;;;;;;;19.27;5.85;;;;;;;;;;5000857;28;20047;-79
2022/02/25 12:57:28;;;;;;;11.48;5.20;;;;;;;;;;4998853;28;20061;-80
2022/02/25 12:59:54;;;;;;;19.33;6.82;;;;;;;;;;5000855;28;20081;-80
2022/02/25 13:04:49;;;;;;;25.52;6.88;;;;;;;;;;5015145;28;20052;-83
2022/02/25 13:07:16;;;;;;;15.85;5.50;;;;;;;;;;5023243;28;20088;-82
2022/02/25 13:09:43;;;;;;;19.48;6.25;;;;;;;;;;5019082;28;20050;-81
2022/02/25 13:12:10;;;;;;;14.98;6.10;;;;;;;;;;5020378;28;20077;-82
2022/02/25 13:14:39;;;;;;;20.33;5.72;;;;;;;;;;5020258;28;20168;-82
2022/02/25 13:17:07;;;;;;;13.02;5.40;;;;;;;;;;5020835;28;20053;-82
2022/02/25 13:19:34;;;;;;;12.98;5.70;;;;;;;;;;5020420;28;20141;-85
2022/02/25 13:22:02;;;;;;;14.07;6.57;;;;;;;;;;5021183;28;20146;-83
2022/02/25 13:24:28;;;;;;;20.88;6.15;;;;;;;;;;5020241;28;20101;-84
2022/02/25 13:26:57;;;;;;;17.48;6.07;;;;;;;;;;5020003;28;20088;-83
2022/02/25 13:29:23;;;;;;;19.33;7.05;;;;;;;;;;5018905;28;20512;-82
2022/02/25 13:31:56;;;;;;;20.27;6.65;;;;;;;;;;5019617;28;20129;-83
2022/02/25 13:34:22;;;;;;;24.25;7.13;;;;;;;;;;5023120;28;20138;-84
2022/02/25 13:36:49;;;;;;;21.38;7.07;;;;;;;;;;5023895;28;20496;-84
2022/02/25 13:39:22;;;;;;;19.40;7.03;;;;;;;;;;5026425;28;20053;-83
2022/02/25 13:41:49;;;;;;;21.95;6.78;;;;;;;;;;5025227;28;20050;-83
2022/02/25 13:44:15;;;;;;;20.30;6.88;;;;;;;;;;5023895;28;20056;-84
2022/02/25 13:46:45;;;;;;;26.65;6.85;;;;;;;;;;5025402;28;20104;-83
2022/02/25 13:54:39;;;;;;;17.35;6.07;;;;;;;;;;5021979;28;20042;-83
2022/02/25 13:57:06;;;;;;;18.48;6.95;;;;;;;;;;5024703;28;20088;-84
2022/02/25 13:59:40;;;;;;;25.73;7.45;;;;;;;;;;5025484;28;20130;-83
2022/02/25 14:02:08;;;;;;;18.75;6.90;;;;;;;;;;5023192;28;20050;-83
2022/02/25 14:04:36;;;;;;;14.00;6.95;;;;;;;;;;5025297;28;20069;-83
2022/02/25 14:07:04;;;;;;;16.42;6.88;;;;;;;;;;5027824;28;20106;-84
2022/02/25 14:09:31;;;;;;;18.52;6.90;;;;;;;;;;5022167;28;20115;-84
2022/02/25 14:12:03;;;;;;;11.63;5.82;;;;;;;;;;5023049;28;20092;-84
2022/02/25 14:14:30;;;;;;;23.85;7.40;;;;;;;;;;5024791;28;20088;-84
2022/02/25 14:16:56;;;;;;;18.33;6.97;;;;;;;;;;5026229;28;20088;-84
2022/02/25 14:19:24;;;;;;;21.08;6.90;;;;;;;;;;5023429;28;20183;-83
2022/02/25 14:21:51;;;;;;;24.83;7.50;;;;;;;;;;5023836;28;20137;-81
2022/02/25 14:24:28;;;;;;;18.05;6.78;;;;;;;;;;5026467;28;20045;-83
2022/02/25 14:27:09;;;;;;;16.85;7.00;;;;;;;;;;5022063;28;20060;-81
2022/02/25 14:29:35;;;;;;;23.80;7.38;;;;;;;;;;5026112;28;20053;-84
2022/02/25 14:32:07;;;;;;;15.88;6.55;;;;;;;;;;5025412;28;20080;-84
2022/02/25 14:34:34;;;;;;;11.23;6.07;;;;;;;;;;5027719;28;20102;-85
2022/02/25 14:37:02;;;;;;;12.27;5.80;;;;;;;;;;5029165;28;20088;-85
2022/02/25 14:39:29;;;;;;;13.10;6.20;;;;;;;;;;5026708;28;20054;-85
2022/02/25 14:41:55;;;;;;;13.60;6.35;;;;;;;;;;5024740;28;20095;-85
2022/02/25 14:44:21;;;;;;;10.18;6.50;;;;;;;;;;5025237;28;20129;-84
2022/02/25 14:46:49;;;;;;;15.77;5.32;;;;;;;;;;5023123;28;20227;-84